Time;durP1;ratioP1;P1;durP2;ratioP2;P2;SDS_P1;SDS_P2;PMS_P1;PMS_P2;Temp;Humidity;BMP_temperature;BMP_pressure;BME280_temperature;BME280_humidity;BME280_pressure;Samples;Min_cycle;Max_cycle;Signal;HPM_P1;HPM_P2
2022/11/11 06:03:32;;;;;;;43.45;19.13;;;;;;;10.16;100.00;102694.03;4992064;28;20444;-74
2022/11/11 06:05:58;;;;;;;31.40;18.75;;;;;;;10.26;100.00;102704.03;4997688;28;20061;-73
2022/11/11 06:08:23;;;;;;;37.05;18.95;;;;;;;10.26;100.00;102695.66;4999136;28;20056;-72
2022/11/11 06:10:50;;;;;;;38.13;19.73;;;;;;;10.36;100.00;102697.31;5000184;28;20057;-73
2022/11/11 06:13:15;;;;;;;35.03;18.60;;;;;;;10.18;100.00;102704.88;5046263;22;20132;-74
2022/11/11 06:15:41;;;;;;;30.85;16.92;;;;;;;10.21;100.00;102707.03;5003238;28;20043;-72
2022/11/11 06:18:06;;;;;;;33.00;18.65;;;;;;;10.31;100.00;102717.91;5012823;28;20080;-72
2022/11/11 06:20:34;;;;;;;37.03;19.20;;;;;;;10.28;100.00;102724.13;4994669;28;20614;-74
2022/11/11 06:23:00;;;;;;;30.73;17.85;;;;;;;10.28;100.00;102718.53;5024629;28;20117;-72
2022/11/11 06:28:16;;;;;;;28.52;16.60;;;;;;;10.29;100.00;102720.22;5015172;28;20045;-75
2022/11/11 06:30:42;;;;;;;33.13;19.15;;;;;;;10.22;100.00;102722.66;5017606;28;20037;-72
2022/11/11 06:33:08;;;;;;;31.77;17.70;;;;;;;10.33;100.00;102715.63;5014486;28;20401;-73
2022/11/11 06:35:38;;;;;;;35.35;19.02;;;;;;;10.31;100.00;102726.31;4999879;28;20124;-75
2022/11/11 06:38:05;;;;;;;37.67;17.95;;;;;;;10.31;100.00;102731.91;5007949;28;20464;-76
2022/11/11 06:40:31;;;;;;;28.38;17.00;;;;;;;10.41;100.00;102738.31;5013611;28;20053;-73
2022/11/11 06:42:57;;;;;;;32.25;16.08;;;;;;;10.33;100.00;102745.56;5016335;28;20032;-73
2022/11/11 06:45:23;;;;;;;31.23;16.95;;;;;;;10.41;100.00;102744.72;5019654;28;20034;-75
2022/11/11 06:47:49;;;;;;;29.58;17.23;;;;;;;10.36;100.00;102742.09;5019568;28;20400;-72
2022/11/11 06:50:14;;;;;;;34.15;16.70;;;;;;;10.34;100.00;102750.84;5022249;28;20240;-72
2022/11/11 06:52:40;;;;;;;29.70;15.77;;;;;;;10.29;100.00;102747.38;5013986;28;20106;-73
2022/11/11 06:55:06;;;;;;;29.20;17.05;;;;;;;10.26;100.00;102753.59;5018079;28;20461;-74
2022/11/11 06:57:31;;;;;;;33.15;16.67;;;;;;;10.28;100.00;102752.13;5022955;28;20080;-72
2022/11/11 06:59:57;;;;;;;28.50;16.17;;;;;;;10.33;100.00;102749.19;5024545;28;20432;-74
2022/11/11 07:02:22;;;;;;;32.97;17.67;;;;;;;10.29;100.00;102753.81;5005879;28;20048;-73
2022/11/11 07:04:47;;;;;;;26.48;17.52;;;;;;;10.35;100.00;102752.50;5007425;28;20489;-76
2022/11/11 07:07:12;;;;;;;26.15;15.15;;;;;;;10.38;100.00;102757.41;5005767;28;20034;-74
2022/11/11 07:09:38;;;;;;;34.03;17.02;;;;;;;10.33;100.00;102754.78;5008836;28;20083;-74
2022/11/11 07:12:05;;;;;;;39.55;18.52;;;;;;;10.26;100.00;102748.81;5000496;28;20029;-75
2022/11/11 07:14:31;;;;;;;33.80;17.30;;;;;;;10.28;100.00;102757.72;5012666;28;20030;-72
2022/11/11 07:16:57;;;;;;;28.50;15.52;;;;;;;10.43;100.00;102758.41;5014074;28;20423;-76
2022/11/11 07:19:22;;;;;;;31.48;17.42;;;;;;;10.46;100.00;102760.56;5001389;28;20045;-75
2022/11/11 07:21:47;;;;;;;27.10;16.55;;;;;;;10.36;100.00;102764.50;4994490;28;20091;-73
2022/11/11 07:24:13;;;;;;;29.67;16.05;;;;;;;10.34;100.00;102764.81;4998391;28;20571;-74
2022/11/11 07:26:38;;;;;;;31.45;16.95;;;;;;;10.23;100.00;102771.06;5005407;28;20033;-75
2022/11/11 07:29:03;;;;;;;30.58;16.83;;;;;;;10.17;100.00;102776.00;4985822;28;20034;-75
2022/11/11 07:31:29;;;;;;;27.67;15.13;;;;;;;10.25;100.00;102766.78;5005235;28;20034;-74
2022/11/11 07:33:54;;;;;;;28.40;15.95;;;;;;;10.30;100.00;102777.84;5010108;28;20108;-73
2022/11/11 07:36:20;;;;;;;28.42;15.80;;;;;;;10.31;100.00;102775.88;5004822;28;21899;-73
2022/11/11 07:38:45;;;;;;;30.23;15.20;;;;;;;10.22;100.00;102777.81;5006657;28;20396;-73
2022/11/11 07:41:10;;;;;;;31.52;16.23;;;;;;;10.17;100.00;102778.81;4995130;28;20048;-74
2022/11/11 07:43:36;;;;;;;24.13;14.98;;;;;;;10.24;100.00;102770.72;4994089;28;20151;-76
2022/11/11 07:46:01;;;;;;;28.50;15.90;;;;;;;10.18;100.00;102774.84;5013227;28;20123;-73
2022/11/11 07:48:26;;;;;;;26.70;15.00;;;;;;;10.28;100.00;102785.72;5009783;28;20124;-73
2022/11/11 07:50:55;;;;;;;29.80;16.88;;;;;;;10.23;100.00;102785.88;5008576;28;20115;-73
2022/11/11 07:53:20;;;;;;;26.73;15.43;;;;;;;10.26;100.00;102776.81;4989760;28;20053;-75
2022/11/11 07:55:45;;;;;;;26.88;15.57;;;;;;;10.22;100.00;102787.03;5012952;28;20029;-76
2022/11/11 07:58:11;;;;;;;29.65;16.13;;;;;;;10.22;100.00;102791.81;5011028;28;20029;-73
2022/11/11 08:00:36;;;;;;;28.00;14.20;;;;;;;10.28;100.00;102793.28;5017837;28;20052;-76
2022/11/11 08:03:02;;;;;;;27.05;14.40;;;;;;;10.24;100.00;102789.50;5010665;28;20025;-73
2022/11/11 08:05:27;;;;;;;31.92;15.65;;;;;;;10.21;100.00;102790.97;4994507;28;20025;-74
2022/11/11 08:07:52;;;;;;;22.65;14.02;;;;;;;10.29;100.00;102798.59;5013706;28;20602;-73
2022/11/11 08:10:18;;;;;;;29.05;14.48;;;;;;;10.31;100.00;102796.28;5018495;28;20719;-74
2022/11/11 08:15:28;;;;;;;26.20;14.63;;;;;;;10.26;100.00;102804.81;5012307;28;20083;-73
2022/11/11 08:17:53;;;;;;;29.50;14.70;;;;;;;10.35;100.00;102805.69;5011134;28;20033;-75
2022/11/11 08:20:18;;;;;;;23.33;13.57;;;;;;;10.34;100.00;102812.41;5011169;28;21479;-74
2022/11/11 08:22:44;;;;;;;24.23;14.02;;;;;;;10.30;100.00;102811.44;5008215;28;20047;-73
2022/11/11 08:25:13;;;;;;;26.45;13.77;;;;;;;10.25;100.00;102811.56;5010311;28;20036;-74
2022/11/11 08:27:39;;;;;;;24.48;12.90;;;;;;;10.29;100.00;102806.16;5017639;28;20028;-75
2022/11/11 08:30:07;;;;;;;26.65;14.13;;;;;;;10.29;100.00;102818.19;5006090;28;20037;-74
2022/11/11 08:32:33;;;;;;;24.90;13.07;;;;;;;10.37;100.00;102831.38;5009974;28;20882;-75
2022/11/11 08:34:58;;;;;;;32.50;13.45;;;;;;;10.38;100.00;102834.97;5011096;28;20152;-75
2022/11/11 08:37:23;;;;;;;24.20;12.35;;;;;;;10.44;100.00;102832.84;5016322;28;20412;-74
2022/11/11 08:39:51;;;;;;;20.63;13.18;;;;;;;10.35;100.00;102833.66;5018880;28;20041;-72
2022/11/11 08:42:16;;;;;;;27.10;14.45;;;;;;;10.36;100.00;102832.50;5009984;28;20057;-73
2022/11/11 08:44:42;;;;;;;25.95;13.88;;;;;;;10.33;100.00;102826.72;5011668;28;20030;-74
2022/11/11 08:47:07;;;;;;;24.52;13.10;;;;;;;10.37;100.00;102833.31;5015068;28;20083;-75
2022/11/11 08:49:32;;;;;;;22.17;12.70;;;;;;;10.49;100.00;102833.50;5011349;28;20034;-73
2022/11/11 08:51:58;;;;;;;26.33;13.15;;;;;;;10.51;100.00;102835.97;5012415;28;20508;-73
2022/11/11 08:54:23;;;;;;;24.98;13.80;;;;;;;10.53;100.00;102837.28;5006256;28;20526;-73
2022/11/11 08:56:48;;;;;;;19.13;12.95;;;;;;;10.49;100.00;102836.28;5017529;28;20040;-73
2022/11/11 08:59:14;;;;;;;30.52;14.18;;;;;;;10.49;100.00;102847.50;5015840;28;20041;-73
2022/11/11 09:01:39;;;;;;;22.50;12.80;;;;;;;10.48;100.00;102845.84;5014704;28;20036;-75
2022/11/11 09:04:04;;;;;;;20.35;12.90;;;;;;;10.47;100.00;102857.38;5020630;28;20041;-73
2022/11/11 09:06:30;;;;;;;30.15;14.57;;;;;;;10.52;100.00;102858.03;5022238;28;20082;-72
2022/11/11 09:08:55;;;;;;;21.98;12.95;;;;;;;10.53;100.00;102853.25;5012159;28;20435;-75
2022/11/11 09:11:21;;;;;;;23.15;12.75;;;;;;;10.58;100.00;102850.28;5013028;28;20116;-72
2022/11/11 09:13:47;;;;;;;24.20;13.30;;;;;;;10.62;100.00;102862.47;5008026;28;20050;-73
2022/11/11 09:16:12;;;;;;;23.02;13.27;;;;;;;10.64;100.00;102860.16;5017472;28;20060;-72
2022/11/11 09:18:38;;;;;;;24.60;13.38;;;;;;;10.63;100.00;102858.53;5008885;28;21059;-74
2022/11/11 09:21:04;;;;;;;22.17;13.18;;;;;;;10.72;100.00;102873.34;5011484;28;20401;-73
2022/11/11 09:23:29;;;;;;;20.83;12.55;;;;;;;10.78;100.00;102872.03;5014069;28;20052;-75
2022/11/11 09:25:56;;;;;;;22.40;12.63;;;;;;;10.75;100.00;102878.31;5014460;28;20095;-73
2022/11/11 09:28:22;;;;;;;29.08;13.45;;;;;;;10.80;100.00;102871.72;5021495;28;20400;-74
2022/11/11 09:30:48;;;;;;;26.52;12.23;;;;;;;10.75;100.00;102881.09;5018623;28;20021;-73
2022/11/11 09:33:15;;;;;;;24.08;12.15;;;;;;;10.74;100.00;102882.25;5013824;28;20033;-74
2022/11/11 09:35:40;;;;;;;20.23;12.25;;;;;;;10.77;100.00;102881.59;5016196;28;20108;-72
2022/11/11 09:38:06;;;;;;;20.05;12.23;;;;;;;10.87;100.00;102890.81;5020806;28;20112;-72
2022/11/11 09:40:50;;;;;;;26.58;13.07;;;;;;;10.88;100.00;102886.84;5018945;28;20039;-71
2022/11/11 09:43:33;;;;;;;26.13;12.13;;;;;;;10.90;100.00;102896.59;5019235;28;20041;-74
2022/11/11 09:46:17;;;;;;;27.83;13.07;;;;;;;10.95;100.00;102898.38;5015515;28;20029;-74
2022/11/11 09:49:00;;;;;;;19.95;11.55;;;;;;;10.96;100.00;102908.44;5011300;28;20045;-73
2022/11/11 09:51:42;;;;;;;19.27;11.80;;;;;;;11.06;100.00;102908.09;5015716;28;20033;-74
2022/11/11 09:54:16;;;;;;;19.83;12.13;;;;;;;11.03;100.00;102908.78;5021271;28;20044;-72
2022/11/11 09:56:41;;;;;;;23.40;11.27;;;;;;;11.07;100.00;102908.91;5014688;28;20282;-72
2022/11/11 09:59:15;;;;;;;20.17;11.18;;;;;;;11.08;100.00;102910.56;5019885;28;20030;-72
2022/11/11 10:01:48;;;;;;;21.67;12.60;;;;;;;11.08;100.00;102914.19;5014396;28;20037;-71
2022/11/11 10:04:16;;;;;;;22.65;12.10;;;;;;;11.10;100.00;102920.28;5015767;28;20573;-72
2022/11/11 10:06:46;;;;;;;19.35;11.27;;;;;;;11.07;100.00;102915.34;5016904;28;20449;-73
2022/11/11 10:09:24;;;;;;;15.48;9.73;;;;;;;11.17;100.00;102914.16;5013897;28;20025;-72
2022/11/11 10:12:09;;;;;;;18.77;11.48;;;;;;;11.18;100.00;102919.47;5019935;28;20037;-71
2022/11/11 10:14:39;;;;;;;17.42;11.00;;;;;;;11.13;100.00;102916.84;5025047;28;20041;-72
2022/11/11 10:17:31;;;;;;;20.80;10.27;;;;;;;11.16;100.00;102920.94;5015861;28;20045;-73
2022/11/11 10:20:05;;;;;;;19.57;11.50;;;;;;;11.14;100.00;102926.88;5016123;28;20487;-72
2022/11/11 10:22:34;;;;;;;22.95;12.68;;;;;;;11.18;100.00;102910.22;5017472;28;20079;-75
2022/11/11 10:25:10;;;;;;;18.80;11.00;;;;;;;11.17;100.00;102905.75;4996946;28;20026;-72
2022/11/11 10:27:41;;;;;;;21.80;10.82;;;;;;;11.23;100.00;102912.03;5015066;28;20393;-73
2022/11/11 10:30:17;;;;;;;19.45;10.85;;;;;;;11.28;100.00;102907.06;5019763;28;20034;-73
2022/11/11 10:32:55;;;;;;;18.05;11.25;;;;;;;11.28;100.00;102909.03;5014040;28;20021;-72
2022/11/11 10:35:26;;;;;;;17.70;9.85;;;;;;;11.35;100.00;102917.78;5015001;28;20484;-72
2022/11/11 10:38:39;;;;;;;19.30;10.52;;;;;;;11.37;100.00;102926.69;5017426;28;20032;-73
2022/11/11 10:41:19;;;;;;;17.45;10.70;;;;;;;11.38;100.00;102923.56;4958758;28;20053;-74
2022/11/11 10:43:47;;;;;;;20.85;11.68;;;;;;;11.42;100.00;102928.47;5012381;28;21439;-75
2022/11/11 10:46:20;;;;;;;20.63;11.40;;;;;;;11.31;100.00;102923.22;4998907;28;20029;-73
2022/11/11 10:49:11;;;;;;;17.50;9.93;;;;;;;11.36;100.00;102925.88;5011570;28;20460;-72
2022/11/11 10:51:59;;;;;;;16.30;10.25;;;;;;;11.33;100.00;102915.28;5010621;28;20041;-73
2022/11/11 10:54:40;;;;;;;17.27;10.50;;;;;;;11.31;100.00;102917.63;5006172;28;20509;-75
2022/11/11 10:57:27;;;;;;;19.25;11.52;;;;;;;11.24;100.00;102927.72;5013771;28;20041;-73
2022/11/11 11:00:00;;;;;;;20.13;10.95;;;;;;;11.30;100.00;102921.59;5000205;28;20495;-72
2022/11/11 11:02:27;;;;;;;17.73;9.40;;;;;;;11.32;100.00;102929.66;5008981;28;20389;-73
2022/11/11 11:05:31;;;;;;;18.70;9.98;;;;;;;11.38;100.00;102917.94;5016564;28;20032;-73
2022/11/11 11:08:01;;;;;;;18.63;10.85;;;;;;;11.34;100.00;102919.75;4937647;28;20126;-75
2022/11/11 11:10:48;;;;;;;16.85;10.18;;;;;;;11.36;100.00;102923.06;5003146;28;20049;-75
2022/11/11 11:13:25;;;;;;;20.23;11.13;;;;;;;11.32;100.00;102916.47;5012726;28;20444;-74
2022/11/11 11:16:03;;;;;;;19.55;10.75;;;;;;;11.35;100.00;102920.59;5010660;28;20037;-74
2022/11/11 11:18:28;;;;;;;24.20;11.35;;;;;;;11.34;100.00;102918.91;5007336;28;20038;-74
2022/11/11 11:21:06;;;;;;;20.25;11.75;;;;;;;11.33;100.00;102915.28;5014208;28;20049;-73
2022/11/11 11:23:40;;;;;;;21.17;11.43;;;;;;;11.36;100.00;102909.03;5015972;28;20710;-74
2022/11/11 11:26:08;;;;;;;19.20;10.43;;;;;;;11.36;100.00;102903.44;5012730;28;20043;-73
2022/11/11 11:28:34;;;;;;;21.67;11.05;;;;;;;11.27;100.00;102904.59;5021860;28;20045;-72
2022/11/11 11:31:05;;;;;;;19.67;11.85;;;;;;;11.25;100.00;102904.94;5017323;28;20087;-75
2022/11/11 11:34:09;;;;;;;19.55;11.18;;;;;;;11.28;100.00;102907.06;4999694;28;20052;-74
2022/11/11 11:36:34;;;;;;;19.88;11.57;;;;;;;11.26;100.00;102906.59;4933418;28;20042;-72
2022/11/11 11:39:00;;;;;;;26.83;11.30;;;;;;;11.27;100.00;102899.81;4928410;28;20146;-73
2022/11/11 11:41:49;;;;;;;19.63;10.80;;;;;;;11.31;100.00;102899.97;4973125;28;20041;-72
2022/11/11 11:44:34;;;;;;;17.98;10.63;;;;;;;11.39;100.00;102896.31;5010394;28;20108;-75
2022/11/11 11:47:09;;;;;;;19.27;11.98;;;;;;;11.40;100.00;102897.97;5010122;28;20025;-72
2022/11/11 11:50:05;;;;;;;16.92;9.88;;;;;;;11.48;100.00;102904.72;5011261;28;20508;-72
2022/11/11 11:53:05;;;;;;;21.67;11.18;;;;;;;11.56;100.00;102906.66;5009919;28;20112;-72
2022/11/11 11:55:41;;;;;;;17.77;11.45;;;;;;;11.54;100.00;102907.00;5012116;28;20029;-73
2022/11/11 11:58:44;;;;;;;22.38;12.23;;;;;;;11.63;100.00;102903.34;5012124;28;20123;-72
2022/11/11 12:01:17;;;;;;;20.38;10.98;;;;;;;11.52;100.00;102917.72;5016126;28;20029;-75
2022/11/11 12:04:11;;;;;;;19.45;10.90;;;;;;;11.63;100.00;102918.19;5010952;28;20109;-73
2022/11/11 12:07:15;;;;;;;15.95;10.25;;;;;;;11.64;100.00;102919.00;5009967;28;20072;-73
2022/11/11 12:09:52;;;;;;;18.60;10.57;;;;;;;11.76;100.00;102919.13;4969497;28;20049;-72
2022/11/11 12:12:48;;;;;;;15.35;9.70;;;;;;;11.67;98.90;102909.94;5012227;28;20589;-72
2022/11/11 12:15:41;;;;;;;19.95;10.75;;;;;;;11.67;99.96;102907.13;5001478;28;20077;-74
2022/11/11 12:18:25;;;;;;;15.32;9.13;;;;;;;11.65;99.70;102904.63;5007598;28;20107;-71
2022/11/11 12:21:13;;;;;;;16.63;11.30;;;;;;;11.66;98.91;102888.63;5003914;28;20476;-72
2022/11/11 12:23:51;;;;;;;17.25;10.43;;;;;;;11.71;98.68;102891.25;4999812;28;20025;-73
2022/11/11 12:26:27;;;;;;;16.85;10.50;;;;;;;11.83;99.60;102902.59;5013158;28;20037;-73
2022/11/11 12:29:23;;;;;;;18.70;10.15;;;;;;;11.79;98.59;102896.00;5010016;28;20021;-73
2022/11/11 12:32:38;;;;;;;18.85;10.75;;;;;;;11.83;98.15;102888.56;5013528;28;20037;-73
2022/11/11 12:35:28;;;;;;;18.50;9.48;;;;;;;11.77;98.53;102889.91;4898391;28;20043;-72
2022/11/11 12:38:24;;;;;;;15.65;9.85;;;;;;;11.84;98.11;102890.19;5010478;28;20029;-73
2022/11/11 12:40:59;;;;;;;15.60;9.55;;;;;;;11.98;98.02;102890.00;5013331;28;20037;-73
2022/11/11 12:43:35;;;;;;;20.08;10.75;;;;;;;11.95;97.54;102894.31;5014495;28;20041;-73
2022/11/11 12:46:09;;;;;;;18.02;11.00;;;;;;;12.02;97.51;102890.13;5011300;28;20087;-72
2022/11/11 12:49:01;;;;;;;18.75;10.57;;;;;;;12.08;97.48;102886.81;5003640;28;20497;-72
2022/11/11 12:52:14;;;;;;;17.33;9.75;;;;;;;12.07;97.57;102878.72;5011786;28;20033;-72
2022/11/11 12:55:02;;;;;;;21.33;11.25;;;;;;;12.18;97.14;102877.16;4961618;28;20048;-72
2022/11/11 12:57:49;;;;;;;16.88;9.85;;;;;;;12.34;96.16;102881.03;5015268;28;20033;-73
2022/11/11 13:00:20;;;;;;;15.90;9.00;;;;;;;12.25;95.86;102883.06;5012496;28;20476;-72
2022/11/11 13:03:11;;;;;;;18.95;9.43;;;;;;;12.29;96.79;102878.44;5017582;28;20605;-73
2022/11/11 13:05:46;;;;;;;15.23;9.20;;;;;;;12.33;96.59;102872.94;5017269;28;20171;-72
2022/11/11 13:08:17;;;;;;;18.23;9.05;;;;;;;12.41;95.47;102875.66;5011501;28;20022;-73
2022/11/11 13:11:12;;;;;;;14.63;8.40;;;;;;;12.45;96.07;102883.44;5017297;28;20091;-72
2022/11/11 13:14:19;;;;;;;15.77;9.10;;;;;;;12.58;95.21;102885.13;5008963;28;20038;-72
2022/11/11 13:16:44;;;;;;;11.80;7.60;;;;;;;12.87;97.69;102883.41;5018626;28;20032;-75
2022/11/11 13:19:30;;;;;;;16.58;9.23;;;;;;;12.85;95.46;102869.69;5010556;28;20746;-76
2022/11/11 13:22:10;;;;;;;16.55;9.27;;;;;;;12.74;95.77;102879.72;5005979;28;20492;-72
2022/11/11 13:24:36;;;;;;;13.82;8.65;;;;;;;12.69;95.97;102874.28;5006631;28;20117;-72
2022/11/11 13:27:37;;;;;;;16.48;8.85;;;;;;;12.61;97.04;102874.03;5015683;28;20099;-74
2022/11/11 13:30:36;;;;;;;14.27;7.80;;;;;;;12.67;95.45;102885.91;5013676;28;20041;-72
2022/11/11 13:33:23;;;;;;;14.90;8.00;;;;;;;12.78;94.32;102884.31;5016693;28;20033;-72
2022/11/11 13:35:55;;;;;;;24.08;9.32;;;;;;;12.69;94.34;102880.75;5003939;28;20025;-75
2022/11/11 13:38:38;;;;;;;11.07;7.45;;;;;;;12.54;95.31;102885.00;5014482;28;20030;-72
2022/11/11 13:41:06;;;;;;;14.60;8.27;;;;;;;12.60;94.44;102883.63;5019980;28;20075;-72
2022/11/11 13:43:39;;;;;;;15.85;7.72;;;;;;;12.53;95.54;102888.16;5019196;28;20037;-72
2022/11/11 13:46:11;;;;;;;15.60;8.88;;;;;;;12.58;95.12;102890.75;5020795;28;20040;-73
2022/11/11 13:48:45;;;;;;;15.50;8.02;;;;;;;12.57;94.48;102895.56;5016581;28;20313;-73
2022/11/11 13:51:22;;;;;;;13.00;8.07;;;;;;;12.56;94.74;102887.47;5016043;28;20033;-73
2022/11/11 13:53:48;;;;;;;15.35;9.25;;;;;;;12.58;94.82;102890.75;5011581;28;20507;-73
2022/11/11 13:56:34;;;;;;;13.70;7.63;;;;;;;12.55;95.25;102902.69;5015030;28;20025;-75
2022/11/11 13:59:00;;;;;;;17.38;7.75;;;;;;;12.45;95.62;102891.84;5013229;28;20033;-72
2022/11/11 14:01:37;;;;;;;15.15;8.73;;;;;;;12.44;96.21;102895.81;5013236;28;20036;-73
2022/11/11 14:04:05;;;;;;;16.58;8.68;;;;;;;12.39;95.99;102885.59;5012594;28;21091;-74
2022/11/11 14:06:30;;;;;;;15.02;8.13;;;;;;;12.38;96.44;102898.84;5016998;28;20127;-74
2022/11/11 14:08:59;;;;;;;13.55;8.23;;;;;;;12.35;96.12;102896.72;5014182;28;20388;-72
2022/11/11 14:11:25;;;;;;;14.90;8.57;;;;;;;12.32;96.02;102893.75;5018930;28;20048;-72
2022/11/11 14:13:51;;;;;;;23.52;9.43;;;;;;;12.18;96.46;102899.63;5017488;28;20037;-72
2022/11/11 14:16:33;;;;;;;13.88;8.75;;;;;;;12.09;96.93;102898.84;5001957;28;20040;-73
2022/11/11 14:18:58;;;;;;;18.13;9.68;;;;;;;12.08;96.53;102894.38;5013747;28;20696;-72
2022/11/11 14:21:44;;;;;;;20.05;9.43;;;;;;;12.04;97.48;102901.84;5017247;28;20064;-72
2022/11/11 14:24:34;;;;;;;20.33;9.65;;;;;;;12.04;98.02;102899.03;5016761;28;20029;-73
2022/11/11 14:27:03;;;;;;;16.50;9.18;;;;;;;12.06;97.66;102903.19;5006838;28;20632;-74
2022/11/11 14:29:36;;;;;;;20.02;8.68;;;;;;;11.95;98.03;102908.34;5011874;28;20029;-72
2022/11/11 14:32:29;;;;;;;15.77;9.75;;;;;;;11.97;97.71;102894.81;5004824;28;20022;-73
2022/11/11 14:35:05;;;;;;;14.95;9.02;;;;;;;11.90;97.96;102894.50;5011913;28;20274;-71
2022/11/11 14:37:55;;;;;;;19.42;9.90;;;;;;;11.93;98.37;102901.41;5006299;28;20032;-72
2022/11/11 14:40:26;;;;;;;16.35;9.05;;;;;;;11.84;99.03;102901.41;5010625;28;21475;-71
2022/11/11 14:42:51;;;;;;;15.38;8.70;;;;;;;11.81;100.00;102907.72;5011356;28;20037;-75
2022/11/11 14:45:43;;;;;;;19.58;9.75;;;;;;;11.77;99.07;102907.56;5007911;28;20788;-72
2022/11/11 14:48:45;;;;;;;15.00;8.45;;;;;;;11.76;99.78;102905.09;5011026;28;20052;-71
2022/11/11 14:52:00;;;;;;;22.33;9.15;;;;;;;11.72;100.00;102909.72;5014283;28;20041;-72
2022/11/11 14:54:36;;;;;;;18.10;10.10;;;;;;;11.70;100.00;102912.03;4971564;28;20378;-73
2022/11/11 14:57:09;;;;;;;16.30;8.20;;;;;;;11.66;99.22;102908.25;5007545;28;20030;-71
2022/11/11 14:59:37;;;;;;;16.80;8.35;;;;;;;11.63;100.00;102914.56;4993060;28;20090;-72
2022/11/11 15:02:04;;;;;;;17.00;8.32;;;;;;;11.56;99.85;102915.09;5010289;28;20892;-72
2022/11/11 15:04:36;;;;;;;15.98;9.27;;;;;;;11.58;99.68;102916.38;5012760;28;20112;-75
2022/11/11 15:07:02;;;;;;;20.27;10.07;;;;;;;11.59;100.00;102923.66;5014841;28;22226;-72
2022/11/11 15:10:03;;;;;;;19.50;8.90;;;;;;;11.58;99.75;102921.19;5008880;28;20036;-72
2022/11/11 15:13:05;;;;;;;20.50;10.45;;;;;;;11.49;99.31;102911.94;4992819;28;20460;-71
2022/11/11 15:15:51;;;;;;;16.30;8.50;;;;;;;11.49;100.00;102915.59;4956567;28;20509;-72
2022/11/11 15:19:01;;;;;;;13.40;8.15;;;;;;;11.34;100.00;102913.31;4990227;28;20448;-72
2022/11/11 15:22:07;;;;;;;16.77;8.93;;;;;;;11.48;100.00;102919.53;4994385;28;20041;-73
2022/11/11 15:24:54;;;;;;;15.98;8.90;;;;;;;11.41;100.00;102916.44;4917644;29;20048;-71
2022/11/11 15:27:37;;;;;;;16.70;9.18;;;;;;;11.52;100.00;102923.34;4989259;28;20041;-71
2022/11/11 15:30:05;;;;;;;15.55;8.50;;;;;;;11.50;100.00;102924.81;5000340;28;20029;-74
2022/11/11 15:32:39;;;;;;;17.90;8.70;;;;;;;11.54;100.00;102925.81;4993501;28;20041;-72
2022/11/11 15:35:36;;;;;;;18.42;8.43;;;;;;;11.53;100.00;102936.22;4999678;28;20108;-71
2022/11/11 15:38:04;;;;;;;16.98;7.80;;;;;;;11.40;100.00;102931.59;4999814;28;20035;-72
2022/11/11 15:40:47;;;;;;;30.48;17.58;;;;;;;11.36;100.00;102937.09;4995709;28;20120;-75
2022/11/11 15:43:17;;;;;;;46.60;23.42;;;;;;;11.41;100.00;102943.66;4988677;28;20033;-73
2022/11/11 15:45:43;;;;;;;30.17;16.77;;;;;;;11.24;100.00;102933.31;4993771;28;20173;-71
2022/11/11 15:48:19;;;;;;;42.38;24.27;;;;;;;11.10;100.00;102928.69;4982990;28;20032;-73
2022/11/11 15:50:44;;;;;;;30.67;16.67;;;;;;;11.24;100.00;102936.13;4993790;28;20464;-72
2022/11/11 15:53:12;;;;;;;28.13;13.27;;;;;;;11.13;100.00;102933.66;4991102;28;20029;-74
2022/11/11 15:55:39;;;;;;;18.52;12.23;;;;;;;11.07;100.00;102940.59;4991717;28;20104;-74
2022/11/11 15:58:15;;;;;;;22.05;12.63;;;;;;;10.95;100.00;102943.22;4979479;28;20104;-72
2022/11/11 16:00:41;;;;;;;20.77;11.05;;;;;;;10.94;100.00;102941.56;4997539;28;20596;-73
2022/11/11 16:03:39;;;;;;;22.23;13.25;;;;;;;10.92;100.00;102935.47;4993861;28;20176;-74
2022/11/11 16:06:09;;;;;;;20.75;12.85;;;;;;;10.98;100.00;102945.34;4994933;28;20056;-73
2022/11/11 16:08:34;;;;;;;23.83;15.43;;;;;;;11.10;100.00;102933.47;4992125;28;20053;-74
2022/11/11 16:11:00;;;;;;;23.17;14.48;;;;;;;11.00;100.00;102945.84;4981515;28;20971;-73
2022/11/11 16:13:33;;;;;;;20.20;12.93;;;;;;;10.87;100.00;102946.84;4998429;28;21392;-74
2022/11/11 16:16:02;;;;;;;;;;;;;;;10.97;100.00;102949.31;5013215;28;20059;-72
2022/11/11 16:18:44;;;;;;;18.73;12.18;;;;;;;11.07;100.00;102956.53;5003372;28;19986;-72
2022/11/11 16:21:17;;;;;;;20.10;10.95;;;;;;;11.02;99.80;102957.53;5010228;28;20058;-73
2022/11/11 16:23:44;;;;;;;20.10;11.70;;;;;;;11.06;100.00;102961.34;5014965;28;20062;-73
2022/11/11 16:26:10;;;;;;;18.00;10.43;;;;;;;11.02;100.00;102962.34;5011200;28;20519;-73
2022/11/11 16:28:42;;;;;;;18.50;12.68;;;;;;;11.07;100.00;102964.97;5012110;28;20080;-72
2022/11/11 16:31:30;;;;;;;16.10;11.43;;;;;;;10.94;99.95;102959.22;5017369;28;20025;-73
2022/11/11 16:33:56;;;;;;;18.25;12.27;;;;;;;11.01;100.00;102958.72;5014513;28;20378;-72
2022/11/11 16:36:21;;;;;;;18.02;11.30;;;;;;;11.01;100.00;102967.13;5014405;28;20028;-72
2022/11/11 16:38:46;;;;;;;23.05;11.68;;;;;;;10.91;99.73;102971.06;5017340;28;20029;-73
2022/11/11 16:41:31;;;;;;;17.92;10.80;;;;;;;10.89;100.00;102966.94;5019490;28;20112;-72
2022/11/11 16:43:57;;;;;;;22.00;15.23;;;;;;;10.92;100.00;102964.31;5013104;28;20136;-74
2022/11/11 16:46:31;;;;;;;17.23;11.95;;;;;;;10.93;100.00;102970.75;5008738;28;20025;-72
2022/11/11 16:56:40;;;;;;;26.92;17.77;;;;;;;10.62;98.51;102977.28;5007509;28;20385;-74
2022/11/11 16:59:13;;;;;;;18.67;13.55;;;;;;;10.69;100.00;102969.25;5011863;28;20403;-74
2022/11/11 17:01:43;;;;;;;24.55;16.88;;;;;;;10.70;100.00;102970.88;5014623;28;20502;-74
2022/11/11 17:04:09;;;;;;;25.70;15.85;;;;;;;10.61;100.00;102972.03;5014853;28;20149;-75
2022/11/11 17:06:47;;;;;;;24.85;16.38;;;;;;;10.75;100.00;102973.53;5046557;23;20077;-75
2022/11/11 17:09:32;;;;;;;22.77;16.13;;;;;;;10.76;100.00;102975.19;5025584;28;20635;-75
2022/11/11 17:11:58;;;;;;;25.13;16.60;;;;;;;10.82;100.00;102972.22;5020258;28;20484;-74
2022/11/11 17:14:25;;;;;;;22.95;16.55;;;;;;;10.80;100.00;102972.56;4993983;28;20080;-75
2022/11/11 17:16:51;;;;;;;21.90;14.50;;;;;;;10.73;99.67;102970.25;5019663;28;20033;-74
2022/11/11 17:19:16;;;;;;;22.52;13.95;;;;;;;10.71;99.99;102975.34;5022198;28;20025;-74
2022/11/11 17:21:41;;;;;;;23.58;14.05;;;;;;;10.68;99.84;102981.59;5015066;28;20393;-74
2022/11/11 17:24:07;;;;;;;20.85;12.95;;;;;;;10.64;100.00;102966.59;5017526;28;20152;-75
2022/11/11 17:26:33;;;;;;;20.63;14.00;;;;;;;10.60;100.00;102971.19;5022441;28;20112;-75
2022/11/11 17:28:58;;;;;;;20.42;13.43;;;;;;;10.63;100.00;102967.75;5019793;28;20499;-74
2022/11/11 17:31:24;;;;;;;21.33;13.48;;;;;;;10.60;100.00;102968.41;5005706;28;20029;-75
2022/11/11 17:33:49;;;;;;;25.13;16.80;;;;;;;10.52;99.39;102977.59;5024481;28;20025;-75
2022/11/11 17:36:14;;;;;;;25.17;15.07;;;;;;;10.46;100.00;102970.53;5014458;28;20033;-75
2022/11/11 17:38:40;;;;;;;20.33;14.70;;;;;;;10.46;100.00;102970.53;5015127;28;20035;-74
2022/11/11 17:41:05;;;;;;;24.10;16.58;;;;;;;10.44;100.00;102967.25;5020923;28;20037;-74
2022/11/11 17:43:31;;;;;;;42.70;23.77;;;;;;;10.26;100.00;102963.53;5018070;28;20037;-74
2022/11/11 17:46:00;;;;;;;22.65;15.70;;;;;;;10.10;100.00;102969.56;5017167;28;20531;-75
2022/11/11 17:48:25;;;;;;;20.95;13.60;;;;;;;10.30;100.00;102970.97;5015537;28;20033;-75
2022/11/11 17:50:50;;;;;;;22.25;13.15;;;;;;;10.20;100.00;102971.22;5018751;28;20080;-75
2022/11/11 17:53:16;;;;;;;19.48;11.00;;;;;;;10.13;100.00;102968.09;5015209;28;20037;-75